createdAt,value
2022-08-28T00:00:35.729Z,19
2022-08-28T00:01:52.021Z,19
2022-08-28T00:03:08.312Z,19
2022-08-28T00:04:24.621Z,18.9
2022-08-28T00:05:40.000Z,19
2022-08-28T00:06:57.200Z,19
2022-08-28T00:08:13.497Z,19
2022-08-28T00:09:29.806Z,19
2022-08-28T00:10:46.093Z,18.9
2022-08-28T00:12:02.386Z,18.9
2022-08-28T00:13:18.672Z,18.9
2022-08-28T00:14:34.972Z,18.9
2022-08-28T00:15:51.262Z,18.9
2022-08-28T00:17:06.571Z,18.9
2022-08-28T00:18:22.874Z,19
2022-08-28T00:19:39.164Z,19
2022-08-28T00:20:55.452Z,18.9
2022-08-28T00:22:11.743Z,19
2022-08-28T00:23:27.070Z,19
2022-08-28T00:24:43.358Z,19
2022-08-28T00:25:59.658Z,19
2022-08-28T00:27:15.949Z,19
2022-08-28T00:28:32.256Z,19
2022-08-28T00:29:48.540Z,19
2022-08-28T00:31:04.821Z,18.9
2022-08-28T00:32:21.132Z,19
2022-08-28T00:33:37.410Z,18.9
2022-08-28T00:34:53.709Z,18.9
2022-08-28T00:36:10.012Z,18.9
2022-08-28T00:37:26.313Z,18.9
2022-08-28T00:38:42.590Z,18.9
2022-08-28T00:39:57.892Z,18.9
2022-08-28T00:41:14.186Z,18.9
2022-08-28T00:42:30.494Z,18.9
2022-08-28T00:43:46.798Z,18.9
2022-08-28T00:45:03.079Z,18.9
2022-08-28T00:46:19.369Z,18.9
2022-08-28T00:47:35.671Z,18.9
2022-08-28T00:48:51.952Z,18.9
2022-08-28T00:50:08.249Z,18.9
2022-08-28T00:51:24.553Z,18.9
2022-08-28T00:52:40.849Z,18.9
2022-08-28T00:53:57.144Z,19
2022-08-28T00:55:13.430Z,18.9
2022-08-28T00:56:28.744Z,18.9
2022-08-28T00:57:45.037Z,18.9
2022-08-28T00:59:01.327Z,18.8
2022-08-28T01:00:17.624Z,18.8
2022-08-28T01:01:33.908Z,18.8
2022-08-28T01:02:50.216Z,18.8
2022-08-28T01:04:06.506Z,18.8
2022-08-28T01:05:22.805Z,18.8
2022-08-28T01:06:39.087Z,18.8
2022-08-28T01:07:55.396Z,18.8
2022-08-28T01:09:11.689Z,18.8
2022-08-28T01:10:27.993Z,18.7
2022-08-28T01:11:44.279Z,18.7
2022-08-28T01:12:59.586Z,18.7
2022-08-28T01:14:15.883Z,18.7
2022-08-28T01:15:32.177Z,18.7
2022-08-28T01:16:48.454Z,18.7
2022-08-28T01:18:04.764Z,18.7
2022-08-28T01:19:21.055Z,18.7
2022-08-28T01:20:37.349Z,18.6
2022-08-28T01:21:53.642Z,18.6
2022-08-28T01:23:09.930Z,18.6
2022-08-28T01:24:26.228Z,18.5
2022-08-28T01:25:42.513Z,18.5
2022-08-28T01:26:58.826Z,18.5
2022-08-28T01:28:15.119Z,18.5
2022-08-28T01:29:30.424Z,18.5
2022-08-28T01:30:46.717Z,18.5
2022-08-28T01:32:03.012Z,18.5
2022-08-28T01:33:19.297Z,18.4
2022-08-28T01:34:35.591Z,18.5
2022-08-28T01:35:51.889Z,18.5
2022-08-28T01:37:08.193Z,18.4
2022-08-28T01:38:24.480Z,18.4
2022-08-28T01:39:40.769Z,18.4
2022-08-28T01:40:57.073Z,18.4
2022-08-28T01:42:13.354Z,18.4
2022-08-28T01:43:29.664Z,18.3
2022-08-28T01:44:45.952Z,18.3
2022-08-28T01:46:01.252Z,18.3
2022-08-28T01:47:17.562Z,18.3
2022-08-28T01:48:33.842Z,18.3
2022-08-28T01:49:50.135Z,18.3
2022-08-28T01:51:06.426Z,18.2
2022-08-28T01:52:22.746Z,18.2
2022-08-28T01:53:39.026Z,18.2
2022-08-28T01:54:55.312Z,18.2
2022-08-28T01:56:11.604Z,18.2
2022-08-28T01:57:27.905Z,18.2
2022-08-28T01:58:44.194Z,18.2
2022-08-28T02:00:00.492Z,18.2
2022-08-28T02:01:16.808Z,18.1
2022-08-28T02:02:32.089Z,18.1
2022-08-28T02:03:48.397Z,18.1
2022-08-28T02:05:04.687Z,18.1
2022-08-28T02:06:20.982Z,18.1
2022-08-28T02:07:37.271Z,18.1
2022-08-28T02:08:53.568Z,18
2022-08-28T02:10:09.859Z,18
2022-08-28T02:11:26.160Z,18
2022-08-28T02:12:42.457Z,18
2022-08-28T02:13:58.745Z,18
2022-08-28T02:15:15.032Z,17.9
2022-08-28T02:16:31.338Z,18
2022-08-28T02:17:47.634Z,17.9
2022-08-28T02:19:02.930Z,17.9
2022-08-28T02:20:19.226Z,17.9
2022-08-28T02:21:35.518Z,17.9
2022-08-28T02:22:51.822Z,17.9
2022-08-28T02:24:08.115Z,17.9
2022-08-28T02:25:24.406Z,17.9
2022-08-28T02:26:40.706Z,17.9
2022-08-28T02:27:57.005Z,17.9
2022-08-28T02:29:13.297Z,17.9
2022-08-28T02:30:29.581Z,17.8
2022-08-28T02:31:45.874Z,17.8
2022-08-28T02:33:02.175Z,17.7
2022-08-28T02:34:18.469Z,17.7
2022-08-28T02:35:33.775Z,17.7
2022-08-28T02:36:50.071Z,17.7
2022-08-28T02:38:06.371Z,17.6
2022-08-28T02:39:22.662Z,17.6
2022-08-28T02:40:38.956Z,17.6
2022-08-28T02:41:55.243Z,17.6
2022-08-28T02:43:11.547Z,17.6
2022-08-28T02:44:27.833Z,17.6
2022-08-28T02:45:44.140Z,17.5
2022-08-28T02:47:00.433Z,17.5
2022-08-28T02:48:16.719Z,17.4
2022-08-28T02:50:49.304Z,17.4
2022-08-28T02:52:04.624Z,17.4
2022-08-28T02:53:20.906Z,17.4
2022-08-28T02:54:37.198Z,17.3
2022-08-28T02:55:53.499Z,17.3
2022-08-28T02:57:09.786Z,17.3
2022-08-28T02:58:26.079Z,17.3
2022-08-28T02:59:42.382Z,17.3
2022-08-28T03:00:58.675Z,17.3
2022-08-28T03:02:14.965Z,17.3
2022-08-28T03:03:31.264Z,17.3
2022-08-28T03:04:47.557Z,17.3
2022-08-28T03:06:03.860Z,17.3
2022-08-28T03:07:20.151Z,17.3
2022-08-28T03:08:35.445Z,17.2
2022-08-28T03:09:51.751Z,17.3
2022-08-28T03:11:08.038Z,17.2
2022-08-28T03:12:24.336Z,17.2
2022-08-28T03:13:40.625Z,17.2
2022-08-28T03:14:56.926Z,17.2
2022-08-28T03:16:13.221Z,17.3
2022-08-28T03:17:29.520Z,17.2
2022-08-28T03:18:45.815Z,17.2
2022-08-28T03:20:02.092Z,17.2
2022-08-28T03:21:18.385Z,17.2
2022-08-28T03:22:34.694Z,17.3
2022-08-28T03:23:50.972Z,17.3
2022-08-28T03:25:06.296Z,17.3
2022-08-28T03:26:22.594Z,17.3
2022-08-28T03:27:38.895Z,17.2
2022-08-28T03:28:55.188Z,17.2
2022-08-28T03:30:11.469Z,17.2
2022-08-28T03:31:27.780Z,17.2
2022-08-28T03:32:44.052Z,17.2
2022-08-28T03:34:00.359Z,17.2
2022-08-28T03:35:16.654Z,17.2
2022-08-28T03:36:32.935Z,17.1
2022-08-28T03:37:49.237Z,17.1
2022-08-28T03:39:05.532Z,17.1
2022-08-28T03:40:21.824Z,17.1
2022-08-28T03:41:37.123Z,17.1
2022-08-28T03:42:53.428Z,17.1
2022-08-28T03:44:09.727Z,17.1
2022-08-28T03:45:26.010Z,17.1
2022-08-28T03:46:42.315Z,17.1
2022-08-28T03:47:58.544Z,17.1
2022-08-28T03:49:14.833Z,17.1
2022-08-28T03:50:31.144Z,17.1
2022-08-28T03:51:47.388Z,17
2022-08-28T03:53:03.623Z,17
2022-08-28T03:54:19.855Z,17
2022-08-28T03:55:36.125Z,16.9
2022-08-28T03:56:52.348Z,16.8
2022-08-28T03:58:07.611Z,16.8
2022-08-28T03:59:23.855Z,16.7
2022-08-28T04:00:40.091Z,16.8
2022-08-28T04:01:56.334Z,16.8
2022-08-28T04:03:12.571Z,16.7
2022-08-28T04:04:28.828Z,16.7
2022-08-28T04:05:45.054Z,16.7
2022-08-28T04:07:01.299Z,16.8
2022-08-28T04:08:17.535Z,16.7
2022-08-28T04:09:33.774Z,16.7
2022-08-28T04:10:50.004Z,16.7
2022-08-28T04:12:06.245Z,16.7
2022-08-28T04:13:22.496Z,16.7
2022-08-28T04:14:37.755Z,16.7
2022-08-28T04:15:54.001Z,16.6
2022-08-28T04:17:10.237Z,16.6
2022-08-28T04:18:26.492Z,16.6
2022-08-28T04:19:42.729Z,16.5
2022-08-28T04:20:58.962Z,16.5
2022-08-28T04:22:15.186Z,16.5
2022-08-28T04:23:31.435Z,16.6
2022-08-28T04:24:47.665Z,16.6
2022-08-28T04:26:03.916Z,16.5
2022-08-28T04:27:20.148Z,16.5
2022-08-28T04:28:36.396Z,16.5
2022-08-28T04:29:52.624Z,16.5
2022-08-28T04:31:07.881Z,16.4
2022-08-28T04:32:24.124Z,16.4
2022-08-28T04:33:40.373Z,16.4
2022-08-28T04:34:56.625Z,16.4
2022-08-28T04:36:12.844Z,16.4
2022-08-28T04:37:29.085Z,16.3
2022-08-28T04:38:44.351Z,16.3
2022-08-28T04:40:00.600Z,16.3
2022-08-28T04:41:16.840Z,16.3
2022-08-28T04:42:33.069Z,16.2
2022-08-28T04:43:49.307Z,16.2
2022-08-28T04:45:05.548Z,16.2
2022-08-28T04:46:21.793Z,16.2
2022-08-28T04:47:38.042Z,16.2
2022-08-28T04:48:54.278Z,16.2
2022-08-28T04:50:10.512Z,16.2
2022-08-28T04:51:26.756Z,16.2
2022-08-28T04:52:43.005Z,16.2
2022-08-28T04:53:59.230Z,16.2
2022-08-28T04:55:14.483Z,16.3
2022-08-28T04:56:30.726Z,16.3
2022-08-28T04:57:46.972Z,16.2
2022-08-28T04:59:03.216Z,16.2
2022-08-28T05:00:19.460Z,16.2
2022-08-28T05:01:35.697Z,16.2
2022-08-28T05:02:51.928Z,16.2
2022-08-28T05:04:08.163Z,16.2
2022-08-28T05:05:24.412Z,16.3
2022-08-28T05:06:40.644Z,16.3
2022-08-28T05:07:56.894Z,16.3
2022-08-28T05:09:13.131Z,16.3
2022-08-28T05:10:29.366Z,16.3
2022-08-28T05:11:44.630Z,16.3
2022-08-28T05:13:00.866Z,16.3
2022-08-28T05:14:17.100Z,16.4
2022-08-28T05:15:33.354Z,16.4
2022-08-28T05:16:49.590Z,16.4
2022-08-28T05:18:05.825Z,16.4
2022-08-28T05:19:22.070Z,16.5
2022-08-28T05:20:38.304Z,16.5
2022-08-28T05:21:54.538Z,16.6
2022-08-28T05:23:10.786Z,16.6
2022-08-28T05:24:27.016Z,16.6
2022-08-28T05:25:43.258Z,16.6
2022-08-28T05:26:59.514Z,16.6
2022-08-28T05:28:14.771Z,16.7
2022-08-28T05:29:31.015Z,16.7
2022-08-28T05:30:47.254Z,16.7
2022-08-28T05:32:03.474Z,16.8
2022-08-28T05:33:19.734Z,16.8
2022-08-28T05:34:35.961Z,16.8
2022-08-28T05:35:52.197Z,16.8
2022-08-28T05:37:08.435Z,16.8
2022-08-28T05:38:24.686Z,16.8
2022-08-28T05:39:40.919Z,16.7
2022-08-28T05:40:57.174Z,16.7
2022-08-28T05:42:13.404Z,16.7
2022-08-28T05:43:29.665Z,16.7
2022-08-28T05:44:44.910Z,16.7
2022-08-28T05:46:01.139Z,16.7
2022-08-28T05:47:17.374Z,16.7
2022-08-28T05:48:33.629Z,16.7
2022-08-28T05:49:49.863Z,16.7
2022-08-28T05:51:06.097Z,16.7
2022-08-28T05:52:22.335Z,16.7
2022-08-28T05:53:38.590Z,16.6
2022-08-28T05:54:54.825Z,16.7
2022-08-28T05:56:11.066Z,16.6
2022-08-28T05:57:27.301Z,16.6
2022-08-28T05:58:43.547Z,16.6
2022-08-28T05:59:59.784Z,16.6
2022-08-28T06:01:15.049Z,16.6
2022-08-28T06:02:31.267Z,16.7
2022-08-28T06:03:47.519Z,16.7
2022-08-28T06:05:03.754Z,16.6
2022-08-28T06:06:19.992Z,16.6
2022-08-28T06:07:36.247Z,16.6
2022-08-28T06:08:52.485Z,16.6
2022-08-28T06:10:08.714Z,16.6
2022-08-28T06:11:24.962Z,16.6
2022-08-28T06:12:41.202Z,16.6
2022-08-28T06:13:57.447Z,16.7
2022-08-28T06:15:13.674Z,16.6
2022-08-28T06:16:29.920Z,16.6
2022-08-28T06:17:45.175Z,16.6
2022-08-28T06:19:01.418Z,16.6
2022-08-28T06:20:17.666Z,16.6
2022-08-28T06:21:33.890Z,16.6
2022-08-28T06:22:50.144Z,16.6
2022-08-28T06:24:06.373Z,16.5
2022-08-28T06:25:22.626Z,16.5
2022-08-28T06:26:38.853Z,16.5
2022-08-28T06:27:55.105Z,16.4
2022-08-28T06:29:11.338Z,16.4
2022-08-28T06:30:27.566Z,16.4
2022-08-28T06:31:43.816Z,16.4
2022-08-28T06:33:00.057Z,16.4
2022-08-28T06:34:15.308Z,16.4
2022-08-28T06:35:31.543Z,16.4
2022-08-28T06:36:47.799Z,16.3
2022-08-28T06:38:04.025Z,16.4
2022-08-28T06:39:20.270Z,16.4
2022-08-28T06:40:36.519Z,16.4
2022-08-28T06:41:52.753Z,16.5
2022-08-28T06:43:08.998Z,16.5
2022-08-28T06:44:25.241Z,16.6
2022-08-28T06:45:41.476Z,16.6
2022-08-28T06:46:57.703Z,16.6
2022-08-28T06:48:13.948Z,16.7
2022-08-28T06:49:30.201Z,16.7
2022-08-28T06:50:45.449Z,16.7
2022-08-28T06:52:01.694Z,16.8
2022-08-28T06:53:17.938Z,16.8
2022-08-28T06:54:34.163Z,16.8
2022-08-28T06:55:50.417Z,16.8
2022-08-28T06:57:06.649Z,16.8
2022-08-28T06:58:22.897Z,16.8
2022-08-28T06:59:39.146Z,16.8
2022-08-28T07:00:55.372Z,16.8
2022-08-28T07:02:11.621Z,16.8
2022-08-28T07:03:27.854Z,16.8
2022-08-28T07:04:44.082Z,16.8
2022-08-28T07:06:00.335Z,16.8
2022-08-28T07:07:15.582Z,16.7
2022-08-28T07:08:31.826Z,16.8
2022-08-28T07:09:48.058Z,16.8
2022-08-28T07:11:04.301Z,16.7
2022-08-28T07:12:20.548Z,16.7
2022-08-28T07:13:36.778Z,16.7
2022-08-28T07:14:53.031Z,16.7
2022-08-28T07:16:09.258Z,16.7
2022-08-28T07:17:25.498Z,16.7
2022-08-28T07:18:41.750Z,16.8
2022-08-28T07:19:57.992Z,16.8
2022-08-28T07:21:14.227Z,16.8
2022-08-28T07:22:30.457Z,16.9
2022-08-28T07:23:45.723Z,16.9
2022-08-28T07:25:01.980Z,16.9
2022-08-28T07:26:18.200Z,16.9
2022-08-28T07:27:34.439Z,16.9
2022-08-28T07:28:50.691Z,17
2022-08-28T07:30:06.927Z,17
2022-08-28T07:31:23.159Z,17
2022-08-28T07:32:39.396Z,17
2022-08-28T07:33:55.640Z,17.1
2022-08-28T07:35:11.884Z,17.1
2022-08-28T07:36:28.114Z,17.1
2022-08-28T07:37:44.357Z,17.2
2022-08-28T07:39:00.613Z,17.2
2022-08-28T07:40:15.855Z,17.2
2022-08-28T07:41:32.110Z,17.2
2022-08-28T07:42:48.346Z,17.2
2022-08-28T07:44:04.589Z,17.2
2022-08-28T07:45:20.822Z,17.2
2022-08-28T07:46:37.057Z,17.2
2022-08-28T07:47:53.299Z,17.2
2022-08-28T07:49:09.532Z,17.2
2022-08-28T07:50:25.779Z,17.1
2022-08-28T07:51:42.026Z,17.1
2022-08-28T07:52:58.264Z,17
2022-08-28T07:54:14.000Z,17
2022-08-28T07:55:30.732Z,17
2022-08-28T07:56:46.002Z,16.8
2022-08-28T07:58:02.228Z,16.8
2022-08-28T07:59:18.471Z,16.7
2022-08-28T08:00:34.709Z,16.7
2022-08-28T08:01:50.963Z,16.7
2022-08-28T08:03:07.202Z,16.7
2022-08-28T08:04:23.436Z,16.8
2022-08-28T08:05:39.670Z,16.8
2022-08-28T08:06:55.911Z,16.8
2022-08-28T08:08:12.153Z,16.8
2022-08-28T08:09:28.394Z,16.9
2022-08-28T08:10:44.631Z,16.9
2022-08-28T08:12:00.874Z,16.9
2022-08-28T08:13:16.124Z,16.9
2022-08-28T08:14:32.363Z,17
2022-08-28T08:15:48.612Z,17
2022-08-28T08:17:04.847Z,17.1
2022-08-28T08:18:21.097Z,17.2
2022-08-28T08:19:37.336Z,17.2
2022-08-28T08:20:53.582Z,17.3
2022-08-28T08:22:09.819Z,17.3
2022-08-28T08:23:26.046Z,17.3
2022-08-28T08:24:42.297Z,17.4
2022-08-28T08:25:58.542Z,17.5
2022-08-28T08:27:14.784Z,17.7
2022-08-28T08:28:31.020Z,17.8
2022-08-28T08:29:46.278Z,17.9
2022-08-28T08:31:02.518Z,18
2022-08-28T08:32:18.754Z,18
2022-08-28T08:33:34.991Z,17.9
2022-08-28T08:34:51.240Z,17.8
2022-08-28T08:36:07.473Z,17.7
2022-08-28T08:37:23.717Z,17.8
2022-08-28T08:38:39.956Z,18
2022-08-28T08:41:12.430Z,18.3
2022-08-28T08:42:28.684Z,18.4
2022-08-28T08:43:44.910Z,18.6
2022-08-28T08:45:01.146Z,18.8
2022-08-28T08:46:16.403Z,18.9
2022-08-28T08:47:32.657Z,18.9
2022-08-28T08:50:05.132Z,18.9
2022-08-28T08:51:21.364Z,19
2022-08-28T08:52:37.602Z,19.1
2022-08-28T08:53:52.882Z,19
2022-08-28T08:55:09.109Z,19.1
2022-08-28T08:56:25.361Z,19.3
2022-08-28T08:57:41.590Z,19.4
2022-08-28T08:58:57.833Z,19.5
2022-08-28T09:00:14.078Z,19.6
2022-08-28T09:01:30.305Z,19.7
2022-08-28T09:02:46.553Z,19.9
2022-08-28T09:04:02.802Z,19.9
2022-08-28T09:05:19.031Z,20
2022-08-28T09:06:35.277Z,20.2
2022-08-28T09:07:51.514Z,20.3
2022-08-28T09:09:07.744Z,20.3
2022-08-28T09:10:23.019Z,20.4
2022-08-28T09:11:39.243Z,20.3
2022-08-28T09:12:55.485Z,20.4
2022-08-28T09:14:11.738Z,20.1
2022-08-28T09:15:27.964Z,19.8
2022-08-28T09:16:44.211Z,19.7
2022-08-28T09:18:00.453Z,19.5
2022-08-28T09:19:16.697Z,19.3
2022-08-28T09:20:32.922Z,19.5
2022-08-28T09:21:49.172Z,19.5
2022-08-28T09:23:05.413Z,19.6
2022-08-28T09:24:21.642Z,19.8
2022-08-28T09:25:37.892Z,19.9
2022-08-28T09:26:53.140Z,19.8
2022-08-28T09:28:09.392Z,19.8
2022-08-28T09:29:25.630Z,19.8
2022-08-28T09:30:41.861Z,19.9
2022-08-28T09:31:58.096Z,19.9
2022-08-28T09:33:14.356Z,20.1
2022-08-28T09:34:30.590Z,20.3
2022-08-28T09:35:46.819Z,20.4
2022-08-28T09:37:03.064Z,20.5
2022-08-28T09:38:19.303Z,20.7
2022-08-28T09:39:35.551Z,20.7
2022-08-28T09:40:51.782Z,20.7
2022-08-28T09:42:08.025Z,20.6
2022-08-28T09:43:23.283Z,20.6
2022-08-28T09:44:39.521Z,20.8
2022-08-28T09:45:55.767Z,20.9
2022-08-28T09:47:12.000Z,20.7
2022-08-28T09:48:28.242Z,20.6
2022-08-28T09:49:44.488Z,20.8
2022-08-28T09:51:00.712Z,21.1
2022-08-28T09:52:16.952Z,21.3
2022-08-28T09:53:33.193Z,21.5
2022-08-28T09:54:49.448Z,21.3
2022-08-28T09:56:05.685Z,21.5
2022-08-28T09:57:21.927Z,21.7
2022-08-28T09:58:38.152Z,21.7
2022-08-28T09:59:53.418Z,22
2022-08-28T10:01:09.674Z,22.1
2022-08-28T10:02:25.912Z,22.1
2022-08-28T10:03:42.136Z,21.9
2022-08-28T10:04:58.367Z,22.1
2022-08-28T10:06:14.614Z,22.2
2022-08-28T10:07:30.865Z,22.2
2022-08-28T10:08:47.106Z,22.3
2022-08-28T10:10:03.361Z,22.3
2022-08-28T10:11:19.587Z,22.3
2022-08-28T10:12:35.812Z,22.5
2022-08-28T10:13:52.058Z,22.6
2022-08-28T10:15:08.307Z,22.8
2022-08-28T10:16:23.544Z,22.8
2022-08-28T10:17:39.792Z,22.8
2022-08-28T10:18:56.042Z,22.9
2022-08-28T10:20:12.278Z,22.8
2022-08-28T10:21:28.521Z,22.9
2022-08-28T10:24:01.004Z,23.1
2022-08-28T10:25:17.233Z,23.1
2022-08-28T10:26:33.479Z,23.1
2022-08-28T10:27:49.703Z,23.1
2022-08-28T10:29:05.953Z,23.1
2022-08-28T10:30:22.189Z,23.1
2022-08-28T10:31:38.436Z,22.9
2022-08-28T10:32:53.690Z,22.7
2022-08-28T10:34:09.931Z,22.4
2022-08-28T10:35:26.169Z,22.2
2022-08-28T10:36:42.415Z,22.2
2022-08-28T10:37:58.657Z,22.2
2022-08-28T10:39:14.896Z,22.3
2022-08-28T10:40:31.120Z,22.3
2022-08-28T10:41:47.377Z,22.1
2022-08-28T10:43:03.613Z,22.1
2022-08-28T10:44:19.865Z,22.1
2022-08-28T10:45:36.099Z,22.1
2022-08-28T10:46:52.324Z,22.1
2022-08-28T10:48:08.561Z,22
2022-08-28T10:49:23.833Z,22
2022-08-28T10:50:40.059Z,22.1
2022-08-28T10:51:56.299Z,22.2
2022-08-28T10:53:12.537Z,22.2
2022-08-28T10:54:28.784Z,22.1
2022-08-28T10:55:45.033Z,22.2
2022-08-28T10:57:01.268Z,22.4
2022-08-28T10:58:17.514Z,22.2
2022-08-28T10:59:33.759Z,22.2
2022-08-28T11:00:49.995Z,22.3
2022-08-28T11:02:06.220Z,22.4
2022-08-28T11:03:22.476Z,22.5
2022-08-28T11:04:38.699Z,22.5
2022-08-28T11:05:53.954Z,22.4
2022-08-28T11:07:10.212Z,22.1
2022-08-28T11:08:26.440Z,21.9
2022-08-28T11:09:42.688Z,21.9
2022-08-28T11:10:58.927Z,21.9
2022-08-28T11:12:15.171Z,22
2022-08-28T11:13:31.419Z,22
2022-08-28T11:14:47.642Z,22.1
2022-08-28T11:16:03.900Z,22.1
2022-08-28T11:17:20.114Z,22
2022-08-28T11:18:36.355Z,22
2022-08-28T11:19:52.596Z,22.1
2022-08-28T11:21:08.837Z,22.1
2022-08-28T11:22:24.103Z,22.2
2022-08-28T11:23:40.340Z,22.2
2022-08-28T11:24:56.584Z,22.3
2022-08-28T11:26:12.832Z,22.4
2022-08-28T11:27:29.072Z,22.3
2022-08-28T11:28:45.307Z,22.2
2022-08-28T11:30:01.539Z,22.1
2022-08-28T11:31:17.785Z,22
2022-08-28T11:32:34.017Z,22.1
2022-08-28T11:33:50.262Z,22.1
2022-08-28T11:35:06.515Z,22.2
2022-08-28T11:36:22.728Z,22.2
2022-08-28T11:37:38.983Z,22.1
2022-08-28T11:38:54.233Z,22.1
2022-08-28T11:40:10.465Z,22.2
2022-08-28T11:41:26.721Z,22.2
2022-08-28T11:42:42.961Z,22.2
2022-08-28T11:43:59.205Z,22.2
2022-08-28T11:45:15.453Z,22.1
2022-08-28T11:46:31.671Z,22
2022-08-28T11:47:47.912Z,21.9
2022-08-28T11:49:04.158Z,22
2022-08-28T11:50:20.404Z,22.1
2022-08-28T11:51:36.634Z,22.1
2022-08-28T11:52:52.864Z,22.1
2022-08-28T11:54:09.102Z,22.2
2022-08-28T11:55:24.380Z,22.2
2022-08-28T11:56:40.600Z,22.2
2022-08-28T11:57:56.839Z,22.2
2022-08-28T11:59:13.079Z,22.2
2022-08-28T12:00:29.331Z,22.1
2022-08-28T12:01:45.570Z,22.1
2022-08-28T12:03:01.807Z,22.1
2022-08-28T12:04:18.053Z,22.1
2022-08-28T12:05:34.293Z,22.1
2022-08-28T12:06:50.526Z,22.2
2022-08-28T12:08:06.760Z,22.2
2022-08-28T12:09:23.001Z,22.2
2022-08-28T12:10:39.254Z,22.2
2022-08-28T12:11:54.496Z,22.2
2022-08-28T12:13:10.740Z,22.3
2022-08-28T12:14:26.980Z,22.4
2022-08-28T12:15:43.228Z,22.4
2022-08-28T12:16:59.470Z,22.4
2022-08-28T12:18:15.726Z,22.5
2022-08-28T12:19:31.951Z,22.5
2022-08-28T12:20:48.175Z,22.5
2022-08-28T12:22:04.430Z,22.5
2022-08-28T12:23:20.668Z,22.6
2022-08-28T12:24:36.906Z,22.5
2022-08-28T12:25:53.134Z,22.6
2022-08-28T12:27:09.372Z,22.6
2022-08-28T12:28:24.643Z,22.7
2022-08-28T12:29:40.869Z,22.6
2022-08-28T12:30:57.127Z,22.7
2022-08-28T12:32:13.349Z,22.6
2022-08-28T12:33:29.592Z,22.6
2022-08-28T12:34:45.846Z,22.6
2022-08-28T12:36:02.083Z,22.7
2022-08-28T12:37:18.343Z,22.7
2022-08-28T12:38:34.576Z,22.8
2022-08-28T12:39:50.793Z,22.8
2022-08-28T12:41:07.049Z,22.9
2022-08-28T12:42:23.271Z,23
2022-08-28T12:43:39.509Z,22.8
2022-08-28T12:44:54.776Z,22.8
2022-08-28T12:46:11.010Z,22.8
2022-08-28T12:47:27.262Z,22.8
2022-08-28T12:48:43.483Z,22.8
2022-08-28T12:49:59.735Z,22.8
2022-08-28T12:51:15.971Z,22.9
2022-08-28T12:52:32.223Z,22.9
2022-08-28T12:53:48.462Z,22.9
2022-08-28T12:55:04.696Z,23
2022-08-28T12:56:20.933Z,22.9
2022-08-28T12:57:37.186Z,22.9
2022-08-28T12:58:53.417Z,23
2022-08-28T13:00:09.651Z,23
2022-08-28T13:01:24.908Z,23
2022-08-28T13:02:41.150Z,23
2022-08-28T13:03:57.381Z,23
2022-08-28T13:05:13.621Z,23
2022-08-28T13:06:29.873Z,23
2022-08-28T13:07:46.102Z,23
2022-08-28T13:09:01.370Z,23
2022-08-28T13:10:17.608Z,23
2022-08-28T13:11:33.860Z,23.1
2022-08-28T13:12:50.083Z,23
2022-08-28T13:14:06.341Z,23.1
2022-08-28T13:15:22.570Z,23.2
2022-08-28T13:16:38.809Z,23.2
2022-08-28T13:17:55.055Z,23.1
2022-08-28T13:19:11.296Z,23.1
2022-08-28T13:20:27.528Z,23.1
2022-08-28T13:21:43.777Z,23.1
2022-08-28T13:23:00.019Z,23.2
2022-08-28T13:24:16.258Z,23.2
2022-08-28T13:25:31.498Z,23.3
2022-08-28T13:26:47.739Z,23.3
2022-08-28T13:28:03.983Z,23.3
2022-08-28T13:29:20.235Z,23.3
2022-08-28T13:30:36.473Z,23.3
2022-08-28T13:31:52.702Z,23.2
2022-08-28T13:33:08.954Z,23.3
2022-08-28T13:34:25.196Z,23.3
2022-08-28T13:35:41.428Z,23.3
2022-08-28T13:36:57.680Z,23.4
2022-08-28T13:38:13.906Z,23.5
2022-08-28T13:39:30.155Z,23.5
2022-08-28T13:40:46.380Z,23.5
2022-08-28T13:42:01.635Z,23.6
2022-08-28T13:43:17.872Z,23.6
2022-08-28T13:44:34.119Z,23.6
2022-08-28T13:45:50.357Z,23.7
2022-08-28T13:47:06.593Z,23.7
2022-08-28T13:48:22.833Z,23.6
2022-08-28T13:49:39.076Z,23.6
2022-08-28T13:50:55.328Z,23.6
2022-08-28T13:52:11.552Z,23.6
2022-08-28T13:53:27.794Z,23.6
2022-08-28T13:54:44.049Z,23.6
2022-08-28T13:56:00.276Z,23.6
2022-08-28T13:57:16.533Z,23.5
2022-08-28T13:58:31.784Z,23.5
2022-08-28T13:59:48.033Z,23.5
2022-08-28T14:01:04.255Z,23.5
2022-08-28T14:02:20.507Z,23.5
2022-08-28T14:03:36.738Z,23.5
2022-08-28T14:04:52.975Z,23.6
2022-08-28T14:06:09.212Z,23.6
2022-08-28T14:07:25.456Z,23.6
2022-08-28T14:08:41.686Z,23.7
2022-08-28T14:09:57.940Z,23.7
2022-08-28T14:11:14.171Z,23.6
2022-08-28T14:12:30.416Z,23.6
2022-08-28T14:13:46.672Z,23.6
2022-08-28T14:15:01.922Z,23.7
2022-08-28T14:16:18.144Z,23.7
2022-08-28T14:17:34.384Z,23.7
2022-08-28T14:18:50.620Z,23.7
2022-08-28T14:20:06.869Z,23.7
2022-08-28T14:21:23.104Z,23.7
2022-08-28T14:22:39.347Z,23.7
2022-08-28T14:23:55.598Z,23.7
2022-08-28T14:25:11.824Z,23.7
2022-08-28T14:26:28.078Z,23.7
2022-08-28T14:27:44.309Z,23.7
2022-08-28T14:29:00.543Z,23.7
2022-08-28T14:30:16.785Z,23.7
2022-08-28T14:31:32.043Z,23.7
2022-08-28T14:32:48.290Z,23.7
2022-08-28T14:34:04.524Z,23.7
2022-08-28T14:35:20.778Z,23.8
2022-08-28T14:36:37.007Z,23.8
2022-08-28T14:37:53.275Z,23.8
2022-08-28T14:39:09.478Z,23.9
2022-08-28T14:40:25.730Z,23.9
2022-08-28T14:41:41.964Z,23.9
2022-08-28T14:42:58.216Z,23.9
2022-08-28T14:44:14.453Z,23.9
2022-08-28T14:45:30.696Z,23.9
2022-08-28T14:46:46.935Z,24
2022-08-28T14:48:02.175Z,23.9
2022-08-28T14:49:18.417Z,23.9
2022-08-28T14:50:34.654Z,23.9
2022-08-28T14:51:50.907Z,23.9
2022-08-28T14:53:07.134Z,24
2022-08-28T14:54:23.380Z,23.9
2022-08-28T14:55:39.622Z,24
2022-08-28T14:56:55.851Z,24
2022-08-28T14:58:12.095Z,24
2022-08-28T14:59:28.355Z,24
2022-08-28T15:00:44.598Z,24
2022-08-28T15:02:00.831Z,24
2022-08-28T15:03:17.061Z,24.1
2022-08-28T15:04:32.329Z,24.1
2022-08-28T15:05:48.570Z,24.2
2022-08-28T15:07:04.787Z,24.1
2022-08-28T15:08:21.026Z,24.1
2022-08-28T15:09:37.273Z,24.1
2022-08-28T15:10:53.507Z,24
2022-08-28T15:12:09.757Z,24
2022-08-28T15:13:25.997Z,24
2022-08-28T15:14:42.228Z,24
2022-08-28T15:15:58.477Z,24
2022-08-28T15:17:14.717Z,24
2022-08-28T15:18:30.975Z,24
2022-08-28T15:19:47.206Z,24
2022-08-28T15:22:18.683Z,23.9
2022-08-28T15:23:34.929Z,23.9
2022-08-28T15:24:51.200Z,23.9
2022-08-28T15:26:07.410Z,23.9
2022-08-28T15:27:23.656Z,23.9
2022-08-28T15:28:39.883Z,23.9
2022-08-28T15:29:56.128Z,23.9
2022-08-28T15:31:12.368Z,23.9
2022-08-28T15:32:28.614Z,23.8
2022-08-28T15:33:44.860Z,23.9
2022-08-28T15:35:01.098Z,23.8
2022-08-28T15:36:17.331Z,23.8
2022-08-28T15:37:32.591Z,23.8
2022-08-28T15:38:48.822Z,23.7
2022-08-28T15:40:05.067Z,23.7
2022-08-28T15:41:21.322Z,23.8
2022-08-28T15:42:37.539Z,23.7
2022-08-28T15:43:53.777Z,23.7
2022-08-28T15:45:10.025Z,23.7
2022-08-28T15:46:26.266Z,23.7
2022-08-28T15:47:42.499Z,23.7
2022-08-28T15:48:58.736Z,23.6
2022-08-28T15:50:14.994Z,23.6
2022-08-28T15:51:31.227Z,23.5
2022-08-28T15:52:47.465Z,23.5
2022-08-28T15:54:02.729Z,23.5
2022-08-28T15:55:18.973Z,23.5
2022-08-28T15:56:35.208Z,23.4
2022-08-28T15:57:51.450Z,23.4
2022-08-28T15:59:07.680Z,23.4
2022-08-28T16:00:23.931Z,23.4
2022-08-28T16:01:40.159Z,23.4
2022-08-28T16:02:56.408Z,23.4
2022-08-28T16:04:12.638Z,23.4
2022-08-28T16:05:28.880Z,23.3
2022-08-28T16:06:45.121Z,23.3
2022-08-28T16:08:01.354Z,23.3
2022-08-28T16:09:17.593Z,23.3
2022-08-28T16:10:32.850Z,23.3
2022-08-28T16:11:49.092Z,23.2
2022-08-28T16:13:05.342Z,23.2
2022-08-28T16:14:21.586Z,23.2
2022-08-28T16:15:37.809Z,23.2
2022-08-28T16:16:54.058Z,23.2
2022-08-28T16:18:10.286Z,23.1
2022-08-28T16:19:26.531Z,23.1
2022-08-28T16:20:42.767Z,23.1
2022-08-28T16:21:59.032Z,23
2022-08-28T16:23:15.259Z,23
2022-08-28T16:24:31.501Z,23
2022-08-28T16:25:47.732Z,23
2022-08-28T16:27:02.982Z,22.9
2022-08-28T16:28:19.236Z,22.9
2022-08-28T16:29:35.478Z,22.9
2022-08-28T16:30:51.708Z,22.9
2022-08-28T16:32:07.944Z,22.9
2022-08-28T16:33:24.201Z,22.9
2022-08-28T16:34:40.421Z,22.9
2022-08-28T16:35:56.662Z,22.9
2022-08-28T16:37:12.938Z,22.8
2022-08-28T16:38:29.156Z,22.8
2022-08-28T16:39:45.383Z,22.8
2022-08-28T16:41:01.619Z,22.7
2022-08-28T16:42:17.875Z,22.7
2022-08-28T16:43:33.140Z,22.6
2022-08-28T16:44:49.362Z,22.6
2022-08-28T16:46:05.610Z,22.6
2022-08-28T16:47:21.863Z,22.6
2022-08-28T16:48:38.083Z,22.6
2022-08-28T16:49:54.333Z,22.6
2022-08-28T16:51:10.561Z,22.6
2022-08-28T16:52:26.806Z,22.5
2022-08-28T16:53:43.042Z,22.6
2022-08-28T16:54:59.289Z,22.5
2022-08-28T16:56:15.523Z,22.5
2022-08-28T16:57:31.773Z,22.5
2022-08-28T16:58:47.997Z,22.5
2022-08-28T17:00:03.258Z,22.4
2022-08-28T17:01:19.491Z,22.5
2022-08-28T17:02:35.735Z,22.4
2022-08-28T17:03:51.971Z,22.4
2022-08-28T17:05:08.228Z,22.4
2022-08-28T17:06:24.462Z,22.3
2022-08-28T17:07:40.695Z,22.3